Time;durP1;ratioP1;P1;durP2;ratioP2;P2;SDS_P1;SDS_P2;PMS_P1;PMS_P2;Temp;Humidity;BMP_temperature;BMP_pressure;BME280_temperature;BME280_humidity;BME280_pressure;Samples;Min_cycle;Max_cycle;Signal;HPM_P1;HPM_P2
2023/07/24 00:00:47;;;;;;;7.18;2.87;;;;;;;23.33;53.28;99488.41;7657989;32;40317;-80
2023/07/24 00:05:04;;;;;;;5.55;2.85;;;;;;;23.47;53.27;99476.78;7657531;32;40046;-81
2023/07/24 00:09:20;;;;;;;7.53;3.15;;;;;;;23.08;54.67;99474.00;7657539;32;38611;-81
2023/07/24 00:13:37;;;;;;;6.28;2.90;;;;;;;23.18;54.47;99478.16;7657407;32;37592;-80
2023/07/24 00:17:53;;;;;;;8.07;3.45;;;;;;;23.05;54.88;99472.75;7657606;32;39162;-82
2023/07/24 00:22:09;;;;;;;7.12;3.10;;;;;;;22.94;55.37;99470.84;7657492;32;40755;-80
2023/07/24 00:26:26;;;;;;;5.72;3.00;;;;;;;22.95;55.44;99458.59;7657080;32;37866;-82
2023/07/24 00:30:43;;;;;;;8.15;3.97;;;;;;;23.16;54.87;99458.25;7657120;32;36783;-81
2023/07/24 00:34:59;;;;;;;6.90;3.28;;;;;;;22.82;56.13;99453.16;7657171;32;39374;-81
2023/07/24 00:39:15;;;;;;;5.97;3.17;;;;;;;23.12;55.01;99441.50;7659328;32;40712;-82
2023/07/24 00:43:32;;;;;;;4.53;2.65;;;;;;;22.99;55.33;99443.59;7660072;32;38779;-81
2023/07/24 00:47:48;;;;;;;6.60;3.45;;;;;;;23.00;55.41;99433.28;7660208;32;37041;-81
2023/07/24 00:52:05;;;;;;;7.00;3.45;;;;;;;23.00;55.30;99434.06;7658865;32;39940;-81
2023/07/24 00:56:22;;;;;;;5.50;3.22;;;;;;;22.85;56.22;99437.72;7660211;32;40744;-82
2023/07/24 01:00:40;;;;;;;5.87;3.15;;;;;;;22.76;56.92;99437.91;7659868;32;38247;-81
2023/07/24 01:04:56;;;;;;;6.55;2.85;;;;;;;22.78;56.94;99421.69;7658373;32;37037;-81
2023/07/24 01:09:13;;;;;;;5.93;3.00;;;;;;;22.78;57.26;99432.00;7659979;32;39158;-81
2023/07/24 01:13:32;;;;;;;4.60;2.90;;;;;;;22.82;57.43;99433.69;7658211;32;39859;-80
2023/07/24 01:17:58;;;;;;;8.70;3.50;;;;;;;22.93;57.14;99433.12;7659918;32;37626;-81
2023/07/24 01:22:32;;;;;;;4.93;2.87;;;;;;;22.88;57.48;99423.88;7658658;32;37080;-81
2023/07/24 01:26:49;;;;;;;6.30;3.42;;;;;;;22.86;57.66;99417.91;7658390;32;40060;-80
2023/07/24 01:31:05;;;;;;;5.35;3.00;;;;;;;22.96;57.44;99418.50;7659431;32;41042;-80
2023/07/24 01:35:22;;;;;;;6.70;3.25;;;;;;;23.06;57.15;99415.97;7659625;32;38790;-81
2023/07/24 01:39:40;;;;;;;5.35;3.05;;;;;;;22.94;57.81;99418.03;7658477;32;37003;-81
2023/07/24 01:43:59;;;;;;;8.23;3.42;;;;;;;23.06;57.40;99409.62;7659455;32;39094;-81
2023/07/24 01:48:16;;;;;;;7.35;3.30;;;;;;;22.96;58.09;99424.88;7659373;32;39994;-80
2023/07/24 01:52:32;;;;;;;8.75;3.97;;;;;;;22.98;57.99;99418.94;7659228;32;38674;-81
2023/07/24 01:56:48;;;;;;;6.57;3.30;;;;;;;23.08;57.55;99417.56;7659361;32;36734;-81
2023/07/24 02:01:05;;;;;;;5.25;2.85;;;;;;;23.00;57.67;99422.16;7659195;32;39471;-80
2023/07/24 02:05:22;;;;;;;6.55;3.33;;;;;;;23.05;57.52;99427.44;7659337;32;39932;-81
2023/07/24 02:09:38;;;;;;;6.65;3.53;;;;;;;23.07;57.16;99414.00;7659023;32;37908;-81
2023/07/24 02:13:55;;;;;;;9.68;3.22;;;;;;;22.91;57.79;99422.37;7659254;32;36779;-81
2023/07/24 02:18:11;;;;;;;5.15;3.15;;;;;;;22.90;57.51;99434.66;7659255;32;39849;-81
2023/07/24 02:22:27;;;;;;;6.75;3.50;;;;;;;22.81;57.48;99426.53;7659368;32;39286;-79
2023/07/24 02:26:43;;;;;;;7.53;3.50;;;;;;;23.05;56.68;99424.66;7659076;32;37895;-82
2023/07/24 02:31:00;;;;;;;7.43;3.62;;;;;;;22.75;57.84;99419.66;7658868;32;38027;-82
2023/07/24 02:35:18;;;;;;;7.07;3.40;;;;;;;22.76;57.79;99418.47;7659013;32;40036;-81
2023/07/24 02:39:34;;;;;;;7.75;3.28;;;;;;;22.65;59.23;99415.47;7658181;32;39980;-81
2023/07/24 02:43:50;;;;;;;8.48;4.18;;;;;;;22.65;58.87;99420.22;7658574;32;39073;-80
2023/07/24 02:48:07;;;;;;;6.68;3.25;;;;;;;22.64;58.55;99427.72;7658588;32;37107;-81
2023/07/24 02:52:23;;;;;;;8.68;3.50;;;;;;;22.58;58.64;99418.06;7658810;32;40030;-81
2023/07/24 02:56:40;;;;;;;5.93;3.70;;;;;;;22.58;58.59;99411.72;7658523;32;39973;-81
2023/07/24 03:01:06;;;;;;;8.00;3.35;;;;;;;22.43;59.42;99405.81;7657724;32;37939;-81
2023/07/24 03:05:23;;;;;;;8.85;4.22;;;;;;;22.39;59.52;99404.94;7658542;32;36948;-80
2023/07/24 03:09:39;;;;;;;7.15;3.92;;;;;;;22.45;59.01;99409.03;7658585;32;40178;-81
2023/07/24 03:13:55;;;;;;;7.12;4.20;;;;;;;22.47;58.76;99411.44;7658539;32;39974;-81
2023/07/24 03:18:12;;;;;;;10.20;4.20;;;;;;;22.52;58.34;99404.81;7658454;32;37991;-81
2023/07/24 03:22:28;;;;;;;5.65;3.45;;;;;;;22.50;58.19;99408.75;7658387;32;37202;-81
2023/07/24 03:26:44;;;;;;;7.72;4.10;;;;;;;22.69;57.38;99404.41;7658349;32;40435;-81
2023/07/24 03:31:01;;;;;;;7.57;4.25;;;;;;;22.55;57.73;99404.91;7658428;32;39737;-81
2023/07/24 03:35:17;;;;;;;7.40;3.97;;;;;;;22.52;58.00;99396.50;7658249;32;38702;-81
2023/07/24 03:39:34;;;;;;;6.70;3.60;;;;;;;22.42;58.56;99407.00;7658279;32;37900;-81
2023/07/24 03:43:50;;;;;;;6.30;3.55;;;;;;;22.48;58.45;99402.75;7658340;32;39286;-81
2023/07/24 03:48:07;;;;;;;7.40;3.83;;;;;;;22.60;58.51;99403.81;7656889;32;40549;-81
2023/07/24 03:52:23;;;;;;;9.88;4.15;;;;;;;22.42;59.29;99393.13;7658026;32;38238;-81
2023/07/24 03:56:39;;;;;;;8.68;3.78;;;;;;;22.50;59.27;99397.66;7657780;32;37012;-82
2023/07/24 04:00:56;;;;;;;7.43;3.87;;;;;;;22.53;59.28;99403.66;7658013;32;40123;-82
2023/07/24 04:05:12;;;;;;;8.10;4.00;;;;;;;22.58;59.23;99406.16;7656624;32;40775;-81
2023/07/24 04:09:29;;;;;;;9.48;4.00;;;;;;;22.78;58.63;99393.09;7657693;32;38431;-81
2023/07/24 04:13:45;;;;;;;8.57;4.25;;;;;;;22.61;59.47;99395.12;7656464;32;37347;-81
2023/07/24 04:18:02;;;;;;;7.35;3.90;;;;;;;22.62;59.89;99401.47;7657692;32;39328;-82
2023/07/24 04:22:18;;;;;;;8.38;4.47;;;;;;;22.63;59.90;99397.56;7657503;32;39998;-81
2023/07/24 04:26:34;;;;;;;7.70;3.72;;;;;;;22.73;59.62;99396.97;7657459;32;37918;-81
2023/07/24 04:30:53;;;;;;;7.30;3.42;;;;;;;22.67;59.94;99398.44;7657404;32;36164;-80
2023/07/24 04:35:09;;;;;;;7.43;3.55;;;;;;;22.81;59.51;99387.62;7657298;32;40303;-81
2023/07/24 04:39:26;;;;;;;7.53;3.53;;;;;;;22.82;59.48;99394.00;7657120;32;40978;-81
2023/07/24 04:43:42;;;;;;;7.53;3.55;;;;;;;22.81;60.00;99395.94;7656942;32;38184;-80
2023/07/24 04:47:58;;;;;;;9.55;4.03;;;;;;;22.95;59.71;99386.31;7656882;32;37681;-80
2023/07/24 04:52:15;;;;;;;7.28;3.42;;;;;;;23.00;59.49;99388.81;7656778;32;39902;-81
2023/07/24 04:56:31;;;;;;;6.60;3.70;;;;;;;23.00;59.87;99399.94;7656705;32;40825;-81
2023/07/24 05:00:48;;;;;;;6.25;3.37;;;;;;;23.22;59.19;99403.97;7656568;32;38695;-81
2023/07/24 05:05:04;;;;;;;7.80;4.07;;;;;;;23.22;59.18;99404.78;7656535;32;37216;-72
2023/07/24 05:09:21;;;;;;;8.10;3.87;;;;;;;23.31;58.98;99400.97;7656344;32;39121;-73
2023/07/24 05:13:37;;;;;;;9.95;4.07;;;;;;;23.41;58.69;99395.62;7656188;32;39985;-72
2023/07/24 05:17:53;;;;;;;9.98;4.00;;;;;;;23.33;59.16;99404.19;7656057;32;38060;-73
2023/07/24 05:22:10;;;;;;;7.93;4.43;;;;;;;23.40;59.28;99412.66;7656001;32;37300;-73
2023/07/24 05:26:26;;;;;;;7.97;3.80;;;;;;;23.47;59.74;99406.44;7659711;32;40039;-73
2023/07/24 05:30:43;;;;;;;9.90;4.30;;;;;;;23.76;58.77;99407.78;7659700;32;39784;-72
2023/07/24 05:34:59;;;;;;;8.07;3.97;;;;;;;23.61;58.97;99406.69;7659543;32;37949;-74
2023/07/24 05:39:15;;;;;;;6.95;3.75;;;;;;;23.83;57.96;99410.72;7659460;32;37248;-74
2023/07/24 05:43:32;;;;;;;9.88;4.53;;;;;;;24.04;58.03;99412.25;7659668;32;40067;-74
2023/07/24 05:47:48;;;;;;;6.62;4.15;;;;;;;24.08;57.75;99400.03;7659417;32;39924;-74
2023/07/24 05:52:05;;;;;;;9.73;4.30;;;;;;;23.93;58.73;99401.75;7656667;32;37764;-73
2023/07/24 05:56:21;;;;;;;6.78;3.80;;;;;;;24.02;58.17;99398.72;7642739;32;37777;-73
2023/07/24 06:00:38;;;;;;;8.15;4.28;;;;;;;24.28;57.29;99400.72;7642143;32;39610;-72
2023/07/24 06:04:54;;;;;;;8.57;4.90;;;;;;;24.07;58.45;99405.97;7641332;32;39970;-73
2023/07/24 06:09:10;;;;;;;7.78;4.03;;;;;;;23.84;58.37;99403.19;7641203;32;38623;-73
2023/07/24 06:13:27;;;;;;;9.73;4.62;;;;;;;24.26;57.53;99391.94;7642967;32;37596;-73
2023/07/24 06:17:44;;;;;;;9.85;4.22;;;;;;;24.66;56.94;99389.78;7653883;32;39405;-72
2023/07/24 06:22:00;;;;;;;6.90;4.30;;;;;;;24.62;57.25;99381.34;7634480;32;41290;-73
2023/07/24 06:26:17;;;;;;;7.15;4.07;;;;;;;24.80;56.80;99380.81;7632847;32;37675;-73
2023/07/24 06:30:33;;;;;;;7.90;4.00;;;;;;;25.14;56.33;99389.19;7632759;32;37825;-73
2023/07/24 06:34:49;;;;;;;7.62;4.10;;;;;;;25.22;56.28;99386.13;7633145;32;39351;-73
2023/07/24 06:39:06;;;;;;;11.48;4.53;;;;;;;25.29;56.36;99379.84;7637682;32;40157;-73
2023/07/24 06:43:22;;;;;;;8.20;4.32;;;;;;;25.53;55.61;99369.34;7632472;32;38753;-73
2023/07/24 06:47:38;;;;;;;9.20;4.78;;;;;;;25.58;55.29;99369.00;7632537;32;37017;-79
2023/07/24 06:51:55;;;;;;;9.85;4.47;;;;;;;25.89;54.83;99366.88;7632415;32;39458;-79
2023/07/24 06:56:11;;;;;;;8.32;4.60;;;;;;;26.32;53.97;99347.66;7632835;32;40172;-79
2023/07/24 07:00:27;;;;;;;8.38;4.68;;;;;;;25.67;56.26;99345.16;7648563;32;38680;-80
2023/07/24 07:04:44;;;;;;;9.07;4.62;;;;;;;26.13;54.67;99331.97;7643563;32;38034;-80
2023/07/24 07:09:00;;;;;;;9.88;4.65;;;;;;;26.11;54.53;99335.16;7632366;32;39303;-79
2023/07/24 07:13:17;;;;;;;9.07;4.53;;;;;;;26.50;54.21;99343.00;7637817;32;40618;-80
2023/07/24 07:17:33;;;;;;;9.55;4.78;;;;;;;26.26;55.28;99368.78;7654930;32;38623;-79
2023/07/24 07:21:50;;;;;;;9.50;4.45;;;;;;;26.59;54.32;99354.63;7632497;32;37901;-79
2023/07/24 07:26:06;;;;;;;10.65;4.90;;;;;;;26.98;54.33;99337.25;7632171;32;39405;-79
2023/07/24 07:30:22;;;;;;;9.13;4.80;;;;;;;27.42;53.76;99315.00;7632098;32;39966;-80
2023/07/24 07:34:39;;;;;;;8.90;4.85;;;;;;;27.91;52.25;99324.66;7633540;32;37617;-79
2023/07/24 07:38:55;;;;;;;12.13;4.78;;;;;;;28.06;51.82;99317.88;7641491;32;37095;-80
2023/07/24 07:43:11;;;;;;;8.90;4.55;;;;;;;28.48;50.52;99318.97;7631874;32;39347;-80
2023/07/24 07:47:28;;;;;;;11.93;5.00;;;;;;;28.75;50.31;99318.53;7653345;32;40826;-80
2023/07/24 07:51:44;;;;;;;8.23;4.53;;;;;;;28.91;49.33;99312.44;7648740;32;38015;-81
2023/07/24 07:56:00;;;;;;;11.75;4.90;;;;;;;29.31;48.94;99310.22;7632172;32;38145;-81
2023/07/24 08:00:17;;;;;;;12.37;5.03;;;;;;;29.51;49.14;99310.50;7631494;32;39982;-81
2023/07/24 08:04:34;;;;;;;11.68;4.53;;;;;;;29.80;48.20;99304.66;7631446;32;39898;-81
2023/07/24 08:08:50;;;;;;;8.40;4.70;;;;;;;29.70;47.62;99308.31;7631304;32;38788;-80
2023/07/24 08:13:09;;;;;;;11.85;5.22;;;;;;;30.09;46.14;99301.59;7631456;32;36789;-80
2023/07/24 08:17:26;;;;;;;9.20;4.62;;;;;;;30.15;45.50;99291.50;7631317;32;39331;-82
2023/07/24 08:21:42;;;;;;;11.32;4.65;;;;;;;30.08;45.33;99291.56;7641616;32;39896;-80
2023/07/24 08:25:59;;;;;;;10.80;4.62;;;;;;;30.09;46.04;99291.16;7634591;32;38491;-80
2023/07/24 08:30:15;;;;;;;9.50;4.85;;;;;;;30.17;46.07;99277.84;7630928;32;37427;-80
2023/07/24 08:34:32;;;;;;;10.75;5.55;;;;;;;29.79;46.66;99286.22;7632234;32;39336;-80
2023/07/24 08:38:48;;;;;;;9.68;4.95;;;;;;;30.31;45.98;99283.28;7655183;32;40006;-81
2023/07/24 08:43:05;;;;;;;11.00;5.05;;;;;;;30.49;45.20;99277.50;7655804;32;38622;-76
2023/07/24 08:47:21;;;;;;;11.02;5.28;;;;;;;30.73;45.90;99268.38;7655869;32;37095;-73
2023/07/24 08:51:39;;;;;;;8.68;5.20;;;;;;;30.86;46.09;99266.59;7655251;32;37560;-76
2023/07/24 08:55:57;;;;;;;9.75;5.10;;;;;;;30.98;45.02;99260.41;7656118;32;39034;-81
2023/07/24 09:00:14;;;;;;;11.65;5.35;;;;;;;31.10;44.88;99258.22;7656874;32;38666;-82
2023/07/24 09:04:30;;;;;;;11.93;4.95;;;;;;;31.45;45.40;99248.44;7659417;32;37095;-81
2023/07/24 09:08:47;;;;;;;8.77;5.00;;;;;;;31.65;45.27;99248.56;7654067;32;40041;-81
2023/07/24 09:13:04;;;;;;;11.18;5.47;;;;;;;31.38;45.11;99252.16;7641776;32;39882;-80
2023/07/24 09:17:21;;;;;;;10.98;5.18;;;;;;;31.75;44.62;99239.13;7659286;32;37855;-81
2023/07/24 09:21:37;;;;;;;8.30;5.25;;;;;;;32.00;44.86;99240.69;7652543;32;37078;-81
2023/07/24 09:25:54;;;;;;;10.68;5.22;;;;;;;32.28;43.62;99233.69;7633117;32;39404;-81
2023/07/24 09:30:14;;;;;;;8.48;4.87;;;;;;;32.45;42.57;99237.41;7632670;32;40748;-81
2023/07/24 09:34:32;;;;;;;9.60;5.32;;;;;;;32.48;42.85;99225.25;7632884;32;38541;-81
2023/07/24 09:39:00;;;;;;;12.13;5.53;;;;;;;33.06;41.82;99224.00;7640158;32;37179;-81
2023/07/24 09:43:21;;;;;;;9.10;5.25;;;;;;;33.13;41.65;99223.81;7659174;32;40080;-81
2023/07/24 09:47:59;;;;;;;10.15;6.10;;;;;;;33.21;39.77;99213.97;7658929;32;40559;-81
2023/07/24 09:52:27;;;;;;;12.75;5.90;;;;;;;33.10;42.09;99196.47;7657764;32;38646;-82
2023/07/24 09:56:43;;;;;;;13.10;5.97;;;;;;;33.71;41.36;99177.25;7657568;32;38060;-80
2023/07/24 10:01:11;;;;;;;12.27;6.07;;;;;;;34.09;38.92;99183.03;7658923;32;40259;-81
2023/07/24 10:05:30;;;;;;;13.45;6.50;;;;;;;33.88;37.81;99181.62;7658501;32;40834;-80
2023/07/24 10:09:47;;;;;;;15.18;6.25;;;;;;;34.11;36.46;99182.59;7656533;32;37862;-82
2023/07/24 10:14:04;;;;;;;13.62;6.93;;;;;;;33.27;37.10;99177.53;7657667;32;37326;-81
2023/07/24 10:18:28;;;;;;;17.02;7.32;;;;;;;32.94;36.88;99177.47;7657300;32;39203;-82
2023/07/24 10:22:45;;;;;;;14.02;6.80;;;;;;;33.36;36.83;99165.59;7655706;32;39803;-80
2023/07/24 10:27:07;;;;;;;13.05;6.87;;;;;;;33.77;35.56;99155.66;7630784;32;37884;-81
2023/07/24 10:31:29;;;;;;;16.27;7.43;;;;;;;33.47;35.85;99152.00;7632123;32;37792;-81
2023/07/24 10:35:51;;;;;;;12.00;6.53;;;;;;;33.80;36.24;99154.78;7634545;32;39978;-81
2023/07/24 10:40:18;;;;;;;13.48;6.78;;;;;;;33.84;36.19;99132.84;7659048;32;40740;-80
2023/07/24 10:44:35;;;;;;;15.50;7.05;;;;;;;34.10;34.17;99135.75;7645977;32;38509;-81
2023/07/24 10:48:52;;;;;;;12.25;7.03;;;;;;;34.18;32.69;99131.47;7639232;32;36641;-81
2023/07/24 10:53:10;;;;;;;12.43;6.53;;;;;;;34.19;32.82;99131.06;7632561;32;40180;-80
2023/07/24 10:57:27;;;;;;;13.88;6.25;;;;;;;34.30;33.73;99122.25;7632351;32;38947;-80
2023/07/24 11:01:44;;;;;;;15.15;7.45;;;;;;;34.70;33.10;99116.16;7632424;32;37904;-80
2023/07/24 11:06:01;;;;;;;14.35;7.60;;;;;;;35.11;29.99;99097.44;7654448;32;37290;-81
2023/07/24 11:10:20;;;;;;;13.55;7.90;;;;;;;34.92;29.98;99109.84;7658495;32;39365;-81
2023/07/24 11:14:47;;;;;;;12.73;7.00;;;;;;;34.70;29.34;99110.50;7658621;32;39759;-80
2023/07/24 11:19:04;;;;;;;14.85;7.47;;;;;;;34.97;28.62;99090.22;7658411;32;37854;-81
2023/07/24 11:23:21;;;;;;;11.80;6.70;;;;;;;35.22;30.35;99067.97;7657765;32;38135;-80
2023/07/24 11:27:43;;;;;;;15.20;7.28;;;;;;;35.14;29.22;99065.38;7657283;32;39727;-81
2023/07/24 11:32:00;;;;;;;12.57;7.10;;;;;;;35.28;27.94;99035.00;7645621;32;40065;-80
2023/07/24 11:36:17;;;;;;;13.10;7.70;;;;;;;35.18;28.91;99043.38;7634761;32;38611;-78
2023/07/24 11:40:36;;;;;;;11.88;6.18;;;;;;;35.41;28.93;99044.25;7637524;32;37062;-83
2023/07/24 11:44:54;;;;;;;12.73;6.60;;;;;;;35.71;26.69;99033.44;7637802;32;39128;-82
2023/07/24 11:49:14;;;;;;;17.02;7.15;;;;;;;35.89;26.26;99019.41;7637086;32;39664;-82
2023/07/24 11:53:31;;;;;;;11.82;7.03;;;;;;;36.16;25.32;99011.47;7641314;32;37915;-82
2023/07/24 11:58:03;;;;;;;12.65;6.60;;;;;;;35.84;24.97;99005.81;7641230;32;37823;-82
2023/07/24 12:02:20;;;;;;;16.55;7.60;;;;;;;36.46;23.54;98990.00;7641543;32;40392;-82
2023/07/24 12:06:38;;;;;;;13.48;7.22;;;;;;;36.55;24.82;98984.38;7637631;32;38635;-81
2023/07/24 12:10:55;;;;;;;13.23;6.80;;;;;;;36.44;24.87;98978.34;7640314;32;37761;-83
2023/07/24 12:15:12;;;;;;;13.85;6.62;;;;;;;36.70;24.25;98973.19;7641870;32;37161;-81
2023/07/24 12:19:36;;;;;;;12.45;6.82;;;;;;;36.40;23.42;98969.19;7639254;32;40013;-82
2023/07/24 12:23:53;;;;;;;12.63;6.78;;;;;;;36.46;23.28;98967.28;7633520;32;39899;-82
2023/07/24 12:28:09;;;;;;;12.15;6.25;;;;;;;36.62;23.90;98957.72;7630871;32;38644;-81
2023/07/24 12:32:26;;;;;;;13.48;6.47;;;;;;;37.21;22.55;98946.28;7629611;32;37095;-82
2023/07/24 12:36:43;;;;;;;13.18;6.43;;;;;;;36.75;24.07;98940.56;7630693;32;39376;-82
2023/07/24 12:41:07;;;;;;;15.10;6.40;;;;;;;36.40;24.70;98947.28;7631208;32;40728;-82
2023/07/24 12:45:26;;;;;;;14.38;5.85;;;;;;;36.77;23.75;98938.84;7630475;32;38511;-83
2023/07/24 12:49:42;;;;;;;12.00;6.18;;;;;;;35.81;24.05;98932.25;7630848;32;37531;-83
2023/07/24 12:53:58;;;;;;;14.77;6.18;;;;;;;35.72;25.03;98913.13;7656777;32;39318;-80
2023/07/24 12:58:35;;;;;;;10.90;6.07;;;;;;;35.85;25.00;98908.16;7645898;32;40982;-84
2023/07/24 13:02:51;;;;;;;12.32;5.87;;;;;;;36.13;24.61;98908.25;7630285;32;37974;-83
2023/07/24 13:07:08;;;;;;;12.37;5.85;;;;;;;36.23;24.57;98892.06;7630329;32;37831;-84
2023/07/24 13:11:24;;;;;;;12.00;5.87;;;;;;;36.53;24.64;98886.75;7636772;32;39512;-84
2023/07/24 13:15:41;;;;;;;14.25;6.32;;;;;;;36.09;24.88;98894.22;7638222;32;39592;-83
2023/07/24 13:19:57;;;;;;;10.98;5.50;;;;;;;35.86;24.92;98889.91;7637922;32;38085;-84
2023/07/24 13:24:14;;;;;;;12.07;5.97;;;;;;;35.51;26.50;98889.22;7638029;32;37162;-82
2023/07/24 13:28:30;;;;;;;12.98;5.97;;;;;;;35.78;26.16;98867.97;7638011;32;40089;-84
2023/07/24 13:32:47;;;;;;;13.40;5.93;;;;;;;35.89;26.76;98848.47;7638933;32;39650;-84
2023/07/24 13:37:04;;;;;;;18.05;5.37;;;;;;;35.91;25.67;98843.91;7638122;32;37964;-83
2023/07/24 13:41:20;;;;;;;10.70;5.57;;;;;;;36.06;25.28;98844.09;7631302;32;37300;-83
2023/07/24 13:45:37;;;;;;;9.23;5.22;;;;;;;36.19;25.43;98832.63;7639817;32;39320;-83
2023/07/24 13:49:53;;;;;;;12.27;5.95;;;;;;;36.20;25.68;98831.34;7643128;32;39947;-84
2023/07/24 13:54:10;;;;;;;10.95;6.10;;;;;;;36.74;25.20;98817.72;7645197;32;37952;-83
2023/07/24 13:58:26;;;;;;;12.65;6.45;;;;;;;36.56;25.16;98817.69;7642600;32;239225;-82
2023/07/24 14:02:43;;;;;;;12.18;6.62;;;;;;;36.48;23.87;98831.41;7655521;32;39071;-83
2023/07/24 14:06:59;;;;;;;14.60;6.53;;;;;;;35.92;23.93;98811.44;7633089;32;41005;-84
2023/07/24 14:11:16;;;;;;;15.32;6.95;;;;;;;36.05;24.64;98804.87;7632824;32;37888;-82
2023/07/24 14:15:32;;;;;;;12.73;7.32;;;;;;;35.49;25.49;98790.50;7632994;32;38109;-83
2023/07/24 14:19:49;;;;;;;13.73;7.43;;;;;;;34.84;26.42;98780.91;7632743;32;39127;-83
2023/07/24 14:24:05;;;;;;;13.62;7.57;;;;;;;34.27;27.31;98789.41;7636393;32;40728;-78
2023/07/24 14:28:22;;;;;;;17.55;7.45;;;;;;;33.98;27.86;98804.50;7658916;32;38168;-84
2023/07/24 14:32:38;;;;;;;15.63;7.90;;;;;;;33.49;29.05;98793.56;7657821;32;38085;-80
2023/07/24 14:36:55;;;;;;;15.10;7.80;;;;;;;33.65;29.12;98776.50;7659059;32;39029;-86
2023/07/24 14:41:12;;;;;;;15.95;8.10;;;;;;;33.24;30.01;98774.59;7658898;32;39975;-87
2023/07/24 14:45:29;;;;;;;17.83;7.82;;;;;;;33.72;29.26;98755.72;7649396;32;38403;-86
2023/07/24 14:49:45;;;;;;;16.37;8.27;;;;;;;33.47;29.90;98762.16;7658887;32;37184;-86
2023/07/24 14:54:02;;;;;;;17.23;8.02;;;;;;;33.06;30.20;98741.25;7652679;32;39318;-85
2023/07/24 14:58:18;;;;;;;22.70;8.13;;;;;;;33.81;30.10;98729.59;7637894;32;40798;-85
2023/07/24 15:02:34;;;;;;;17.35;7.50;;;;;;;34.02;29.55;98723.19;7632337;32;38757;-84
2023/07/24 15:06:51;;;;;;;17.08;8.30;;;;;;;34.18;29.06;98718.59;7632549;32;37701;-87
2023/07/24 15:11:07;;;;;;;18.98;8.68;;;;;;;33.79;29.55;98709.47;7633652;32;40092;-84
2023/07/24 15:15:24;;;;;;;17.33;8.32;;;;;;;34.53;29.10;98684.59;7640803;32;39922;-85
2023/07/24 15:19:40;;;;;;;18.83;7.65;;;;;;;34.11;26.84;98704.72;7644249;32;37970;-85
2023/07/24 15:23:57;;;;;;;16.95;8.15;;;;;;;34.24;26.92;98682.87;7649867;32;37340;-86
2023/07/24 15:28:13;;;;;;;15.43;8.05;;;;;;;33.54;26.44;98691.31;7655312;32;39086;-86
2023/07/24 15:32:29;;;;;;;16.87;8.10;;;;;;;32.77;27.46;98682.84;7651761;32;39855;-86
2023/07/24 15:36:46;;;;;;;16.50;7.62;;;;;;;33.47;27.29;98671.78;7649559;32;37980;-85
2023/07/24 15:41:02;;;;;;;16.58;7.95;;;;;;;33.68;26.38;98658.97;7647986;32;37122;-85
2023/07/24 15:45:19;;;;;;;15.20;6.70;;;;;;;33.65;26.58;98677.63;7650310;32;39283;-85
2023/07/24 15:49:35;;;;;;;17.83;8.70;;;;;;;33.25;27.16;98695.06;7651406;32;39691;-85
2023/07/24 15:53:52;;;;;;;16.17;8.25;;;;;;;32.57;27.66;98686.62;7649157;32;38580;-86
2023/07/24 15:58:08;;;;;;;15.60;7.43;;;;;;;32.93;27.79;98676.31;7649815;32;37230;-85
2023/07/24 16:02:24;;;;;;;19.60;8.18;;;;;;;33.52;27.46;98662.72;7639117;32;39440;-86
2023/07/24 16:06:41;;;;;;;18.12;8.23;;;;;;;33.58;27.71;98662.94;7630099;32;39566;-86
2023/07/24 16:10:58;;;;;;;16.10;8.13;;;;;;;33.41;28.70;98671.56;7631090;32;37966;-85
2023/07/24 16:15:15;;;;;;;21.92;8.02;;;;;;;33.61;28.74;98671.28;7630373;32;36985;-86
2023/07/24 16:19:32;;;;;;;22.30;8.00;;;;;;;33.30;29.22;98663.44;7630690;32;39420;-86
2023/07/24 16:23:49;;;;;;;18.48;8.00;;;;;;;33.05;29.15;98663.47;7630786;32;40877;-86
2023/07/24 16:28:06;;;;;;;15.18;7.85;;;;;;;32.05;30.01;98673.66;7630362;32;37445;-85
2023/07/24 16:32:23;;;;;;;18.62;7.72;;;;;;;31.97;30.32;98677.88;7630742;32;37542;-86
2023/07/24 16:36:43;;;;;;;15.68;8.07;;;;;;;31.71;30.19;98674.91;7629769;32;40131;-86
2023/07/24 16:41:02;;;;;;;18.20;7.35;;;;;;;31.70;29.84;98681.81;7630271;32;39600;-86
2023/07/24 16:45:19;;;;;;;14.82;7.53;;;;;;;31.60;30.38;98660.34;7633000;32;38561;-88
2023/07/24 16:49:38;;;;;;;17.75;7.53;;;;;;;31.89;30.15;98643.47;7656303;32;36512;-86
2023/07/24 16:53:54;;;;;;;15.98;8.07;;;;;;;31.49;31.23;98654.16;7646801;32;39293;-85
2023/07/24 16:58:11;;;;;;;16.45;7.62;;;;;;;31.43;31.20;98646.25;7640341;32;39621;-85
2023/07/24 17:02:27;;;;;;;17.25;7.32;;;;;;;31.58;31.28;98649.53;7630013;32;38493;-85
2023/07/24 17:06:44;;;;;;;15.93;7.37;;;;;;;31.29;31.64;98652.25;7629479;32;38058;-86
2023/07/24 17:11:00;;;;;;;15.77;8.43;;;;;;;31.21;32.29;98633.94;7643969;32;39378;-86
2023/07/24 17:15:16;;;;;;;17.20;7.03;;;;;;;31.23;32.32;98634.28;7655942;32;40820;-84
2023/07/24 17:19:33;;;;;;;15.98;7.00;;;;;;;30.95;32.98;98628.13;7642100;32;37606;-82
2023/07/24 17:23:49;;;;;;;14.57;7.35;;;;;;;30.59;33.85;98630.97;7653488;32;38496;-85
2023/07/24 17:28:06;;;;;;;15.70;7.53;;;;;;;30.59;34.05;98637.37;7658122;32;39088;-85
2023/07/24 17:32:24;;;;;;;18.92;7.12;;;;;;;30.43;34.61;98651.41;7658750;32;39410;-86
2023/07/24 17:36:40;;;;;;;14.27;6.15;;;;;;;30.55;34.59;98642.28;7658674;32;39055;-86
2023/07/24 17:41:00;;;;;;;14.38;7.10;;;;;;;30.00;35.58;98655.06;7658797;32;37173;-83
2023/07/24 17:45:17;;;;;;;15.20;7.10;;;;;;;30.62;34.73;98642.13;7651565;32;39160;-86
2023/07/24 17:49:34;;;;;;;18.40;7.60;;;;;;;30.39;35.55;98642.22;7658143;32;39846;-84
2023/07/24 17:53:50;;;;;;;16.35;7.43;;;;;;;30.79;34.85;98625.28;7658443;32;37946;-84
2023/07/24 17:58:07;;;;;;;14.75;6.80;;;;;;;30.47;35.46;98598.69;7655231;32;36807;-84
2023/07/24 18:02:23;;;;;;;15.07;7.32;;;;;;;30.37;35.90;98594.88;7651293;32;39734;-85
2023/07/24 18:06:39;;;;;;;12.63;6.03;;;;;;;30.63;35.66;98595.91;7648295;32;39904;-84
2023/07/24 18:10:56;;;;;;;16.25;7.10;;;;;;;30.58;35.87;98585.19;7648860;32;36599;-85
2023/07/24 18:15:12;;;;;;;13.38;6.30;;;;;;;30.21;36.98;98575.13;7649672;32;37843;-85
2023/07/24 18:19:29;;;;;;;14.57;6.57;;;;;;;29.73;37.77;98569.63;7650575;32;40074;-85
2023/07/24 18:23:45;;;;;;;16.83;6.53;;;;;;;30.39;36.61;98563.50;7648314;32;39793;-83
2023/07/24 18:28:02;;;;;;;14.50;6.45;;;;;;;29.73;37.85;98554.81;7649084;32;38702;-85
2023/07/24 18:32:19;;;;;;;13.82;6.80;;;;;;;30.22;37.12;98548.59;7647008;32;37133;-85
2023/07/24 18:36:36;;;;;;;16.67;6.35;;;;;;;30.28;37.19;98558.88;7651191;32;40003;-84
2023/07/24 18:40:52;;;;;;;13.30;6.30;;;;;;;30.06;37.45;98583.06;7650687;32;39170;-83
2023/07/24 18:45:09;;;;;;;16.87;6.20;;;;;;;30.12;37.54;98584.16;7650002;32;39088;-83
2023/07/24 18:49:25;;;;;;;12.57;5.85;;;;;;;29.93;37.80;98586.53;7652471;32;37915;-83
2023/07/24 18:53:42;;;;;;;14.00;6.20;;;;;;;29.84;38.05;98591.94;7652580;32;40019;-84
2023/07/24 18:57:58;;;;;;;18.92;6.37;;;;;;;29.81;38.58;98595.62;7654486;32;39990;-85
2023/07/24 19:02:15;;;;;;;14.80;6.22;;;;;;;29.93;38.08;98583.72;7658531;32;38590;-85
2023/07/24 19:06:32;;;;;;;14.50;5.85;;;;;;;30.00;38.26;98599.66;7658730;32;37842;-84
2023/07/24 19:10:52;;;;;;;14.95;6.62;;;;;;;29.84;38.64;98586.31;7653894;32;39586;-85
2023/07/24 19:15:09;;;;;;;13.77;5.70;;;;;;;30.13;38.00;98597.78;7640352;32;40787;-85
2023/07/24 19:19:26;;;;;;;13.30;5.82;;;;;;;29.91;38.66;98602.25;7632064;32;38621;-85
2023/07/24 19:23:42;;;;;;;13.85;6.35;;;;;;;29.68;39.20;98598.22;7631938;32;37110;-84
2023/07/24 19:27:58;;;;;;;18.48;6.03;;;;;;;29.94;38.51;98585.31;7632195;32;39515;-83
2023/07/24 19:32:15;;;;;;;15.80;6.10;;;;;;;29.90;38.72;98584.59;7631955;32;40760;-82
2023/07/24 19:36:32;;;;;;;11.52;5.95;;;;;;;30.16;38.11;98587.66;7644039;32;38494;-82
2023/07/24 19:40:59;;;;;;;15.55;6.00;;;;;;;30.09;38.30;98568.16;7656153;32;38232;-83
2023/07/24 19:45:15;;;;;;;14.55;5.90;;;;;;;30.15;38.31;98583.28;7654272;32;39879;-82
2023/07/24 19:49:34;;;;;;;15.68;6.32;;;;;;;30.08;38.50;98577.78;7654425;32;39778;-83
2023/07/24 19:53:51;;;;;;;11.57;5.22;;;;;;;30.14;38.52;98584.50;7655382;32;38677;-82
2023/07/24 19:58:08;;;;;;;13.45;6.15;;;;;;;30.17;37.89;98572.41;7654230;32;38614;-83
2023/07/24 20:02:38;;;;;;;12.37;5.37;;;;;;;30.25;38.22;98559.78;7654789;32;39869;-83